Date,TemperatureHighF,TemperatureAvgF,TemperatureLowF,DewpointHighF,DewpointAvgF,DewpointLowF,HumidityHigh,HumidityAvg,HumidityLow,PressureMaxIn,PressureMinIn,WindSpeedMaxMPH,WindSpeedAvgMPH,GustSpeedMaxMPH,PrecipitationSumIn
2013-1-1,47.2,43.9,39.5,41.6,37.1,31.1,94,77,59,30.07,29.91,5,1,13,0.15
2013-1-2,43.1,37.9,35.4,41.5,35.3,33.3,95,90,80,30.22,29.96,3,1,8,0.25
2013-1-3,39.2,33.9,30.1,33.2,28.0,23.4,92,79,66,30.27,30.18,3,1,7,0.00
2013-1-4,45.5,35.8,27.2,28.2,25.3,22.6,87,67,48,30.28,30.17,5,2,11,0.00
2013-1-5,48.4,39.0,30.2,31.4,25.7,22.0,73,60,42,30.40,30.23,3,1,6,0.00
2013-1-6,51.7,42.9,37.5,37.9,34.1,30.0,88,72,55,30.24,30.05,4,1,6,0.02
2013-1-7,47.7,41.2,35.0,33.7,31.5,29.0,79,69,56,30.45,30.17,4,0,7,0.00
2013-1-8,49.4,40.1,31.2,39.3,33.8,28.1,90,79,64,30.49,30.38,2,0,7,0.00
2013-1-9,67.0,52.9,39.2,55.0,46.2,35.1,87,79,65,30.42,30.29,7,2,11,0.00
2013-1-10,53.3,50.8,47.5,49.2,47.3,44.7,91,88,86,30.44,30.39,1,0,10,0.00
2013-1-11,46.7,43.3,39.4,45.6,42.0,37.5,96,95,93,30.35,30.13,4,1,6,0.13
2013-1-12,56.8,52.8,46.7,55.1,51.8,45.6,97,96,93,30.17,30.11,5,1,6,0.00
2013-1-13,71.0,60.9,54.4,64.2,58.2,53.6,98,91,77,30.12,30.02,4,2,11,0.01
2013-1-14,62.9,56.9,42.1,60.2,55.0,40.8,96,93,88,30.25,30.03,8,2,14,1.07
2013-1-15,42.0,39.8,37.9,40.7,38.8,36.9,96,96,95,30.32,30.11,5,1,10,1.42
2013-1-16,45.4,40.3,35.9,44.3,39.3,34.9,97,96,96,30.13,29.93,3,1,7,0.56
2013-1-17,46.0,40.7,32.1,45.2,39.8,30.9,97,96,95,30.13,29.99,8,1,16,0.89
2013-1-18,39.3,33.5,29.4,34.2,30.1,26.6,96,88,70,30.54,30.13,2,0,6,0.37
2013-1-19,50.3,38.8,28.9,34.3,29.7,24.5,88,71,51,30.50,30.11,6,2,11,0.20
2013-1-20,57.4,45.4,36.2,38.8,32.9,29.7,78,63,43,30.11,29.93,8,3,14,0.04
2013-1-21,53.7,41.9,28.9,34.3,27.3,14.9,87,58,38,30.10,29.81,7,2,14,0.00
2013-1-22,37.7,27.3,21.6,14.4,7.0,2.3,51,42,34,30.31,29.94,6,2,13,0.00
2013-1-23,33.4,25.6,14.4,14.9,7.9,2.6,74,48,33,30.38,30.09,6,1,14,0.00
2013-1-24,30.4,25.0,17.6,21.5,12.5,4.6,87,60,40,30.56,30.01,5,1,15,0.00
2013-1-25,23.6,19.7,14.3,20.9,12.7,4.8,91,75,49,30.55,30.11,4,1,12,0.00
2013-1-26,32.2,26.2,19.3,26.8,22.9,17.4,92,87,79,30.44,30.10,3,0,5,0.01
2013-1-27,37.8,29.8,22.4,26.9,24.4,20.2,93,81,63,30.63,30.44,3,0,7,0.02
2013-1-28,56.4,41.2,30.7,47.1,36.5,25.6,94,84,67,30.51,30.16,9,3,15,0.14
2013-1-29,73.0,58.4,46.1,56.9,50.5,43.3,90,77,53,30.17,30.02,6,3,11,0.00
2013-1-30,69.6,65.8,60.8,63.9,61.1,56.6,91,85,78,30.02,29.25,13,7,22,0.05
2013-1-31,64.9,43.9,30.4,62.5,31.6,20.3,93,63,41,29.97,29.27,13,6,24,0.46
2013-2-1,37.9,30.1,21.9,29.1,13.9,6.8,75,52,37,30.41,29.81,10,4,21,0.00
2013-2-2,36.4,27.3,16.3,23.9,14.2,7.6,77,58,43,30.41,30.02,6,1,12,0.00
2013-2-3,42.7,36.6,31.3,33.0,25.0,20.2,87,63,51,30.02,29.84,5,2,12,0.00
2013-2-4,40.4,33.6,24.3,27.3,21.2,17.3,77,61,49,30.14,29.96,4,1,8,0.00
2013-2-5,56.1,46.7,39.3,40.7,34.0,27.4,67,61,54,29.96,29.85,6,2,10,0.00
2013-2-6,56.2,46.3,36.9,36.3,32.9,28.6,80,61,41,30.32,29.94,5,1,9,0.00
2013-2-7,43.7,38.0,32.5,36.4,31.1,26.8,94,76,63,30.41,30.13,5,2,10,0.15
2013-2-8,51.5,40.8,34.8,43.5,35.8,27.6,96,84,57,30.13,29.78,8,3,11,0.66
2013-2-9,47.9,38.5,28.4,27.6,21.8,17.0,77,52,33,30.39,29.98,5,1,10,0.00
2013-2-10,46.8,37.1,24.9,33.3,22.2,16.8,79,56,40,30.51,30.25,4,1,12,0.01
2013-2-11,57.1,50.3,39.1,55.2,47.8,33.7,96,91,79,30.24,29.85,10,4,16,0.06
2013-2-12,56.9,50.7,42.9,48.1,32.9,28.8,79,51,39,30.03,29.87,6,2,15,0.00
2013-2-13,49.6,43.1,35.6,40.8,38.2,32.2,95,84,53,29.93,29.63,4,0,11,0.10
2013-2-14,50.8,42.3,32.2,36.4,33.9,30.7,95,73,54,30.06,29.81,4,1,7,0.00
2013-2-15,59.5,47.1,34.1,40.8,34.6,30.8,88,65,38,30.08,29.91,6,2,12,0.00
2013-2-16,43.7,34.6,27.7,38.3,32.2,25.4,94,91,81,30.00,29.85,3,0,11,0.14
2013-2-17,30.3,25.9,20.2,25.3,14.7,8.9,91,64,41,30.27,29.89,8,2,14,0.00
2013-2-18,48.3,33.8,17.6,25.9,18.2,10.1,76,55,35,30.42,30.23,4,1,14,0.00
2013-2-19,46.9,40.3,33.7,44.9,34.8,23.5,94,81,52,30.24,29.81,9,3,16,0.07
2013-2-20,45.8,38.3,32.3,29.3,19.4,16.4,67,47,33,30.16,29.91,7,3,12,0.00
2013-2-21,45.9,35.6,24.9,24.4,20.3,16.6,76,54,40,30.33,30.13,3,1,11,0.00
2013-2-22,39.7,35.3,31.2,32.5,24.9,19.7,90,66,57,30.38,30.20,4,1,7,0.01
2013-2-23,42.5,37.2,34.3,41.2,35.8,32.0,96,94,90,30.19,29.83,2,0,7,0.14
2013-2-24,57.9,44.4,34.9,44.6,35.7,25.8,96,75,41,30.10,29.81,6,1,12,0.00
2013-2-25,40.9,34.3,28.5,26.0,24.0,20.5,80,66,53,30.25,30.09,4,1,12,0.00
2013-2-26,52.2,39.6,29.1,51.1,36.6,23.6,96,89,78,30.22,29.58,10,3,19,0.51
2013-2-27,55.6,46.3,39.2,43.8,39.6,34.8,96,79,53,29.72,29.58,7,3,15,0.00
2013-2-28,47.0,41.4,34.6,38.7,31.7,27.7,90,69,51,29.81,29.66,7,3,12,0.01
2013-3-1,42.0,38.2,33.9,32.5,29.9,27.7,80,72,64,29.91,29.80,3,1,12,0.00
2013-3-2,37.9,35.8,33.7,28.7,25.7,21.4,74,67,59,29.92,29.84,2,0,6,0.00
2013-3-3,43.8,35.4,27.1,24.4,21.5,17.8,75,57,44,29.96,29.82,5,2,11,0.00
2013-3-4,47.9,35.9,23.2,20.1,17.7,15.1,72,49,30,30.08,29.96,5,2,11,0.00
2013-3-5,48.6,38.7,29.8,37.1,27.9,16.0,94,67,42,30.09,29.66,9,2,13,0.38
2013-3-6,36.7,34.0,31.8,34.8,32.3,30.5,95,93,84,30.01,29.50,8,3,15,0.70
2013-3-7,45.7,38.9,32.4,34.0,29.7,26.1,83,70,56,30.21,30.01,5,2,13,0.00
2013-3-8,47.9,39.4,29.9,31.6,28.4,24.8,82,65,51,30.28,30.16,7,2,13,0.00
2013-3-9,58.0,44.8,32.5,31.6,28.8,26.3,81,56,31,30.35,30.26,5,1,12,0.00
2013-3-10,63.6,50.4,35.4,34.1,29.3,25.3,71,47,28,30.34,30.21,5,1,11,0.00
2013-3-11,65.2,53.4,40.0,53.5,45.3,32.4,94,75,52,30.25,29.93,7,3,15,0.00
2013-3-12,65.7,58.4,46.0,59.2,50.4,34.1,95,76,51,29.94,29.73,9,4,15,0.44
2013-3-13,50.9,44.7,35.1,35.2,29.3,19.3,72,55,42,30.11,29.93,9,4,12,0.00
2013-3-14,48.9,38.7,28.2,23.5,20.8,18.1,69,49,35,30.21,30.08,6,2,12,0.00
2013-3-15,58.6,46.1,30.8,38.3,28.7,19.8,67,51,42,30.16,29.85,7,3,12,0.00
2013-3-16,74.9,55.8,45.0,55.3,46.5,37.1,95,73,47,29.85,29.55,9,2,12,0.22
2013-3-17,53.1,40.3,35.5,51.7,38.2,33.9,95,92,89,30.27,29.84,5,2,9,0.14
2013-3-18,36.2,34.3,32.8,35.2,33.0,31.5,96,95,94,30.27,29.89,5,2,11,0.26
2013-3-19,62.2,46.9,34.1,44.6,32.1,14.2,96,65,23,30.01,29.80,11,3,21,0.00
2013-3-20,53.7,45.1,32.3,25.1,18.9,13.3,57,35,26,30.07,29.77,8,2,11,0.00
2013-3-21,44.9,36.6,28.8,25.4,18.6,12.3,67,48,37,29.96,29.73,6,2,11,0.00
2013-3-22,48.3,35.2,23.3,24.5,18.2,12.7,66,51,36,30.06,29.93,6,2,11,0.00
2013-3-23,55.8,42.0,30.9,29.7,24.2,19.1,72,51,31,30.07,29.91,5,1,10,0.00
2013-3-24,44.8,35.8,31.8,32.4,29.2,24.5,95,78,49,29.98,29.63,4,1,10,0.20
2013-3-25,43.7,35.6,31.4,35.5,31.1,27.5,95,84,57,29.75,29.55,6,1,10,0.53
2013-3-26,47.1,39.0,32.5,33.6,29.4,27.0,80,69,54,30.06,29.75,5,2,7,0.02
2013-3-27,50.1,40.7,33.5,31.5,27.5,25.0,79,61,42,30.20,30.06,7,2,11,0.00
2013-3-28,52.2,42.0,32.9,31.3,27.7,25.4,76,58,40,30.28,30.15,6,2,10,0.00
2013-3-29,56.8,46.3,34.1,33.9,30.2,26.2,76,55,37,30.30,30.16,4,1,11,0.00
2013-3-30,61.5,49.9,35.5,36.6,32.9,29.7,81,54,35,30.24,30.09,5,1,11,0.00
2013-3-31,58.3,50.7,44.7,54.5,46.1,33.6,96,85,51,30.11,29.75,5,2,11,0.25
2013-4-1,67.9,56.7,45.8,52.5,43.8,29.7,93,64,43,29.99,29.77,8,3,18,0.00
2013-4-2,52.7,47.6,40.3,30.0,23.7,18.4,60,40,28,30.18,29.99,7,2,18,0.00
2013-4-3,55.0,44.2,30.6,28.5,21.3,17.3,68,42,27,30.37,30.17,5,1,13,0.00
2013-4-4,47.3,38.7,32.6,35.7,25.1,18.0,94,61,39,30.42,30.01,5,1,9,0.82
2013-4-5,62.7,47.8,36.0,45.6,38.6,34.4,96,74,40,30.03,29.87,4,1,9,0.23
2013-4-6,57.8,49.4,40.5,39.6,30.0,25.3,68,48,31,30.31,30.03,6,2,13,0.00
2013-4-7,70.5,53.4,34.3,46.7,38.6,29.4,84,59,41,30.29,30.05,8,3,14,0.00
2013-4-8,77.5,66.1,53.5,57.0,52.2,44.4,86,62,45,30.12,29.99,7,3,14,0.00
2013-4-9,83.6,72.4,60.0,59.9,57.2,54.3,84,61,42,30.12,30.00,6,3,10,0.00
2013-4-10,87.3,79.4,66.4,63.1,60.6,57.8,74,54,42,30.03,29.86,7,4,13,0.00
2013-4-11,81.0,72.6,63.2,64.0,61.1,58.1,84,68,52,29.91,29.76,8,4,15,0.00
2013-4-12,81.4,71.8,63.8,68.5,61.9,47.3,95,73,41,29.77,29.55,8,4,15,0.89
2013-4-13,70.9,62.3,48.4,47.4,43.6,38.5,78,51,38,29.97,29.70,6,1,11,0.00
2013-4-14,77.4,65.0,48.6,50.4,42.9,35.5,69,46,32,30.10,29.96,5,1,9,0.00
2013-4-15,65.8,58.7,52.8,57.0,53.7,49.8,95,84,62,30.25,30.05,7,2,12,0.16
2013-4-16,72.4,62.5,53.7,62.4,57.4,52.2,96,84,68,30.32,30.17,4,1,12,0.00
2013-4-17,83.7,69.6,58.5,67.0,61.8,56.5,94,78,51,30.20,30.09,5,1,11,0.00
2013-4-18,76.6,68.8,61.7,65.0,61.4,59.0,93,78,58,30.19,30.03,8,2,17,0.00
2013-4-19,79.6,68.7,61.7,68.9,63.7,59.0,94,85,67,30.03,29.67,11,4,18,0.37
2013-4-20,61.0,53.9,46.4,57.6,39.6,32.0,91,61,38,30.29,29.75,4,1,18,0.01
2013-4-21,55.9,48.5,41.3,38.5,34.6,29.8,81,59,49,30.56,30.29,7,2,14,0.00
2013-4-22,56.6,46.2,34.3,43.2,38.4,31.7,91,75,57,30.54,30.34,6,2,13,0.00
2013-4-23,61.5,52.3,46.0,50.2,45.1,41.8,86,77,62,30.34,30.13,5,2,14,0.00
2013-4-25,64.6,58.9,50.3,46.5,42.2,38.3,78,55,43,30.28,30.19,4,1,12,0.00
2013-4-26,68.3,55.6,41.7,47.0,42.3,37.4,90,64,37,30.45,30.28,5,1,13,0.00
2013-4-27,70.5,60.0,49.0,49.2,45.6,40.7,82,60,43,30.40,30.26,5,1,13,0.00
2013-4-28,60.6,56.0,51.0,53.2,48.3,44.1,86,76,64,30.29,30.11,3,1,10,0.03
2013-4-29,63.2,57.3,53.2,59.3,55.2,50.1,96,93,85,30.12,29.99,2,0,5,0.72
2013-4-30,64.1,58.1,54.2,58.5,55.4,53.1,96,91,81,30.23,30.04,4,1,7,0.00
2013-5-1,66.4,58.4,52.9,56.5,52.0,46.0,96,80,60,30.37,30.21,7,2,12,0.00
2013-5-2,64.8,56.7,51.1,53.7,50.0,45.6,94,79,61,30.39,30.29,6,1,14,0.00
2013-5-3,66.7,54.5,46.1,54.3,47.8,42.8,95,80,47,30.33,30.23,7,2,17,0.00
2013-5-4,59.3,50.3,43.6,53.2,46.0,41.1,93,85,75,30.28,30.15,5,2,13,0.00
2013-5-5,60.6,51.5,42.1,53.0,47.1,38.8,91,85,76,30.18,30.08,7,3,16,0.00
2013-5-6,65.8,57.6,52.7,62.5,55.9,50.8,97,94,86,30.10,29.90,8,4,21,0.64
2013-5-7,70.8,61.9,54.4,62.7,57.6,52.4,97,87,58,29.95,29.84,6,2,13,0.06
2013-5-8,60.7,55.7,51.7,57.0,53.9,50.0,97,94,84,30.01,29.92,2,0,13,0.30
2013-5-9,77.0,63.5,48.4,62.8,56.3,47.3,98,79,54,30.03,29.96,3,0,9,0.00
2013-5-10,83.1,71.6,58.3,66.3,61.3,55.4,90,72,51,30.04,29.90,5,1,13,0.00
2013-5-11,78.1,69.6,61.5,66.9,63.6,59.5,93,82,63,29.93,29.75,6,1,13,0.09
2013-5-12,68.7,61.9,48.4,60.0,49.6,37.7,94,67,40,30.04,29.76,4,1,12,0.01
2013-5-13,62.2,51.7,39.4,43.1,37.9,33.5,88,61,38,30.19,30.04,3,0,12,0.00
2013-5-14,67.5,54.8,38.5,44.7,39.6,34.8,87,59,37,30.25,30.06,3,1,11,0.00
2013-5-15,84.5,71.1,56.7,67.4,57.3,43.9,72,62,54,30.06,29.80,7,3,14,0.00
2013-5-16,81.3,72.8,67.5,65.5,63.8,62.5,84,74,57,29.94,29.83,3,1,14,0.00
2013-5-17,82.2,72.2,60.9,67.0,61.5,57.3,91,71,49,30.13,29.94,5,1,12,0.26
2013-5-18,65.8,62.6,58.1,64.6,61.0,55.7,97,95,84,30.19,30.11,3,1,6,0.32
2013-5-19,73.7,65.9,63.0,69.2,64.3,62.1,98,95,85,30.18,30.07,6,1,11,0.42
2013-5-20,78.7,69.2,64.5,70.9,66.6,63.3,97,92,76,30.11,30.01,4,1,9,0.04
2013-5-21,81.4,71.7,65.4,73.0,68.6,64.2,97,90,74,30.03,29.91,3,1,9,0.00
2013-5-22,82.2,74.7,68.8,73.7,69.5,66.9,95,84,71,29.99,29.87,5,2,11,0.19
2013-5-23,79.4,71.3,64.2,70.4,67.3,61.2,95,88,70,29.95,29.77,3,1,11,0.07
2013-5-24,68.3,61.1,50.3,61.1,52.4,37.3,94,75,49,30.17,29.78,3,1,7,0.01
2013-5-25,67.5,54.0,38.8,49.1,41.1,35.6,89,63,42,30.26,30.13,2,0,7,0.00
2013-5-26,73.3,59.3,43.7,51.5,45.1,40.1,88,63,36,30.27,30.15,2,0,7,0.00
2013-5-27,74.3,63.4,48.6,61.3,54.5,46.1,92,74,52,30.28,30.16,3,0,7,0.00
2013-5-28,83.9,71.4,57.7,70.2,63.3,54.2,89,76,60,30.21,30.10,5,2,10,0.00
2013-5-29,86.0,75.7,65.4,70.5,66.5,62.1,90,74,57,30.18,30.11,4,2,13,0.00
2013-5-30,85.9,75.5,64.8,71.1,67.1,62.1,91,76,57,30.23,30.15,4,2,10,0.00
2013-5-31,86.1,75.8,65.2,72.1,66.7,62.3,93,75,54,30.19,30.07,4,1,9,0.00
2013-6-1,87.4,77.6,68.0,73.3,68.3,64.8,93,74,53,30.09,29.97,5,1,12,0.00
2013-6-2,83.3,73.8,66.4,71.7,67.5,64.5,96,81,66,29.99,29.88,4,1,12,0.67
2013-6-3,81.4,71.6,66.7,72.8,68.5,65.1,97,90,71,29.95,29.81,4,0,10,0.14
2013-6-4,76.9,67.9,59.8,65.2,58.0,51.5,94,73,45,30.13,29.94,4,1,13,0.00
2013-6-5,79.3,68.6,58.1,64.0,58.7,52.6,92,72,54,30.16,30.04,4,1,10,0.00
2013-6-6,74.3,67.4,58.7,68.5,63.0,55.3,95,86,71,30.06,29.82,6,2,18,0.12
2013-6-7,71.3,68.5,67.0,70.4,67.5,66.1,97,97,95,29.82,29.55,3,1,18,1.46
2013-6-8,79.5,70.5,63.9,69.6,66.5,63.0,97,88,67,30.09,29.78,2,0,5,0.50
2013-6-9,86.0,74.6,63.5,75.3,69.0,62.0,95,84,63,30.16,30.04,4,1,9,0.00
2013-6-10,80.7,73.1,69.4,74.2,70.4,67.8,96,92,79,30.08,29.83,8,2,12,0.14
2013-6-11,83.1,74.5,68.7,71.0,68.0,64.8,96,81,60,29.91,29.84,4,2,11,0.02
2013-6-12,89.0,78.9,66.8,76.9,70.7,63.3,89,77,58,29.92,29.82,3,1,7,0.00
2013-6-13,90.5,76.7,66.5,76.3,71.1,63.8,94,84,58,29.82,29.54,10,2,13,0.16
2013-6-14,76.9,68.7,59.6,63.8,59.5,56.1,90,74,55,30.00,29.67,3,0,12,0.00
2013-6-15,83.1,71.6,59.0,64.4,60.7,55.7,89,70,49,30.10,29.99,3,0,7,0.00
2013-6-16,84.1,75.9,66.7,72.4,68.5,61.9,85,78,66,30.05,29.94,4,1,7,0.00
2013-6-17,83.5,73.3,67.9,74.4,69.2,65.8,95,88,71,30.01,29.89,4,1,7,0.12
2013-6-18,69.0,68.9,68.8,67.4,67.1,67.0,95,94,94,29.95,29.93,0,0,5,0.00
2013-6-19,74.0,70.4,64.9,67.7,66.1,63.1,94,87,79,30.14,30.05,4,1,7,0.01
2013-6-20,78.3,69.1,61.9,65.4,61.7,55.0,96,79,62,30.26,30.14,4,1,11,0.00
2013-6-21,80.1,69.3,55.7,67.6,59.9,52.8,92,74,43,30.29,30.21,4,1,11,0.00
2013-6-22,82.3,70.3,64.0,73.8,66.8,61.8,96,89,74,30.25,30.15,4,1,12,0.32
2013-6-23,84.0,74.6,68.6,76.0,71.2,67.4,97,90,73,30.20,30.09,3,0,12,0.32
2013-6-24,87.0,78.5,70.4,76.5,73.0,68.6,95,84,66,30.16,30.05,4,1,9,0.00
2013-6-25,90.0,79.5,70.0,77.2,72.7,68.2,94,81,59,30.07,29.94,3,1,8,0.00
2013-6-26,89.7,77.0,67.7,77.3,71.7,66.5,96,85,64,29.97,29.83,6,1,9,0.78
2013-6-27,83.8,74.1,67.0,75.0,70.2,65.5,96,88,71,29.88,29.68,7,2,12,0.00
2013-6-28,87.9,77.1,71.3,77.2,71.8,68.1,95,84,67,29.71,29.52,5,2,12,0.03
2013-6-29,87.1,76.9,67.9,74.9,70.2,66.1,95,81,59,29.70,29.55,5,1,9,0.01
2013-6-30,83.8,75.4,68.5,76.2,72.0,66.9,96,90,76,29.87,29.70,6,1,12,1.70
2013-7-1,82.0,73.0,68.7,75.2,70.8,67.5,98,93,78,29.99,29.84,5,1,10,0.57
2013-7-2,76.2,72.6,71.1,73.3,71.1,70.1,97,95,91,30.19,29.99,4,1,9,0.17
2013-7-3,81.6,74.8,71.0,76.8,72.8,70.1,97,94,82,30.24,30.15,3,1,8,0.36
2013-7-4,86.3,78.2,71.8,76.3,73.1,70.8,97,85,69,30.28,30.18,5,2,12,0.00
2013-7-5,86.6,78.2,70.1,76.5,73.0,68.5,96,85,69,30.27,30.15,3,1,13,0.00
2013-7-6,87.1,78.9,72.2,75.4,73.2,70.7,96,84,62,30.23,30.11,3,1,9,0.00
2013-7-7,86.6,78.3,71.0,77.2,73.4,69.0,94,85,72,30.15,30.03,6,2,9,0.02
2013-7-8,84.8,76.1,70.0,74.9,71.8,68.7,97,87,69,30.14,30.07,2,0,7,0.06
2013-7-9,86.0,77.8,72.3,78.3,73.9,70.9,96,88,72,30.12,30.03,4,1,7,0.00
2013-7-10,87.9,77.7,70.7,79.0,73.6,67.6,96,88,73,30.06,29.91,5,1,14,1.03
2013-7-11,79.7,74.1,69.2,75.1,71.7,68.0,97,93,85,29.97,29.87,2,1,7,0.33
2013-7-12,71.3,68.9,65.9,69.2,67.5,64.8,97,95,92,30.05,29.86,6,0,8,1.17
2013-7-13,80.0,72.9,67.6,76.1,70.7,66.5,97,93,87,30.24,30.04,4,1,8,0.04
2013-7-14,85.8,77.0,69.3,76.6,72.6,68.1,98,87,65,30.33,30.23,3,0,10,0.00
2013-7-15,91.5,80.2,71.1,78.3,74.0,69.8,97,83,60,30.32,30.22,1,0,10,0.00
2013-7-16,94.1,83.0,73.4,80.6,75.5,70.4,91,79,57,30.24,30.15,2,0,6,0.00
2013-7-17,91.4,82.0,73.1,79.7,75.6,71.3,95,82,65,30.21,30.09,2,0,4,0.00
2013-7-18,92.6,83.4,73.8,80.4,76.0,72.2,95,80,58,30.13,30.02,2,0,4,0.00
2013-7-19,89.8,82.2,74.5,80.8,76.7,73.0,96,84,69,30.05,29.93,5,1,10,0.00
2013-7-20,87.6,80.7,75.1,79.6,75.6,72.2,92,85,75,29.96,29.86,5,2,10,0.00
2013-7-21,87.9,79.7,73.4,79.3,74.9,71.6,95,86,72,29.94,29.86,3,1,8,0.00
2013-7-27,77.0,74.4,71.9,72.9,71.2,69.7,93,90,87,29.96,29.92,1,0,2,0.00
2013-7-28,84.2,74.8,69.3,74.5,70.5,67.7,95,87,71,29.99,29.89,4,0,6,0.24
2013-7-29,81.7,72.6,65.9,71.4,67.1,63.8,96,84,64,30.16,29.97,3,0,7,0.09
2013-7-30,82.5,71.9,61.8,72.2,66.9,60.1,95,85,63,30.23,30.14,4,0,7,0.00
2013-7-31,79.0,70.4,65.5,73.7,68.0,64.0,97,92,80,30.15,30.01,5,1,9,0.42
2013-8-1,81.3,71.6,65.6,75.1,69.4,64.1,98,93,74,30.02,29.83,3,0,6,1.03
2013-8-2,84.5,74.4,65.5,72.6,67.6,64.3,97,81,57,30.00,29.87,2,0,5,0.00
2013-8-3,83.7,75.4,68.0,73.2,69.8,65.8,94,83,64,29.99,29.90,2,0,6,0.00
2013-8-4,82.1,74.2,66.0,70.4,66.0,60.8,95,77,51,30.04,29.89,2,0,5,0.01
2013-8-5,78.4,70.2,61.1,67.0,62.8,58.5,91,78,58,30.11,30.01,3,0,7,0.00
2013-8-6,78.7,71.4,66.5,72.4,67.6,63.9,94,88,80,30.06,29.98,3,1,8,0.07
2013-8-7,83.4,75.7,69.4,73.9,70.9,68.2,96,86,70,30.08,30.01,4,1,8,0.00
2013-8-8,83.5,76.3,71.6,76.3,72.6,69.8,95,89,75,30.05,29.98,2,0,8,0.00
2013-8-9,88.2,80.6,73.7,79.8,75.6,71.5,94,85,74,29.99,29.91,6,2,12,0.00
2013-8-10,89.2,78.7,73.8,78.2,74.0,71.4,95,86,67,30.09,29.97,4,1,12,0.00
2013-8-11,83.6,75.5,71.8,77.7,73.2,70.5,97,93,81,30.11,30.00,2,0,5,0.01
2013-8-12,87.8,78.9,71.3,77.5,73.5,70.1,97,85,66,30.03,29.92,3,0,7,0.00
2013-8-13,83.3,75.9,71.3,76.2,72.8,69.8,96,90,75,29.92,29.75,3,1,7,0.05
2013-8-14,73.7,72.8,71.9,71.9,70.5,68.5,94,92,89,29.82,29.79,0,0,7,0.00
2013-8-18,66.6,65.0,63.6,65.4,63.9,62.3,97,96,95,30.22,30.16,2,0,6,0.22
2013-8-19,72.5,66.6,62.8,69.7,65.3,61.9,98,96,91,30.21,30.09,2,0,5,0.12
2013-8-20,82.5,71.6,64.7,74.3,68.4,63.8,98,90,75,30.18,30.10,3,0,4,0.00
2013-8-21,83.0,78.4,73.3,77.1,74.8,71.2,94,89,80,30.12,30.08,2,0,5,0.02
2013-8-22,87.3,77.4,70.6,75.0,71.7,67.1,96,84,59,30.12,29.97,2,0,6,0.04
2013-8-23,81.3,70.8,60.7,73.8,68.0,59.0,95,91,76,30.12,29.93,5,1,10,0.59
2013-8-24,79.8,68.7,59.0,69.2,63.0,57.9,97,83,58,30.32,30.11,4,1,11,0.01
2013-8-25,76.3,68.1,59.9,66.7,62.3,58.1,96,83,62,30.41,30.29,4,1,11,0.00
2013-8-26,80.8,69.3,56.5,67.2,61.4,54.1,93,77,58,30.33,30.07,2,0,7,0.00
2013-8-27,87.4,76.0,64.7,76.8,69.0,60.5,92,80,61,30.07,29.92,2,1,5,0.00
2013-8-29,77.5,74.1,70.4,73.3,71.3,68.6,94,91,87,30.02,29.95,1,0,10,0.00
2013-8-30,83.1,74.3,64.8,72.8,68.5,63.6,97,83,62,30.06,29.93,3,0,10,0.00
2013-8-31,85.6,75.8,67.3,76.5,70.8,65.2,94,85,72,29.95,29.82,4,1,9,0.00
2013-9-1,88.3,76.5,68.2,77.6,71.8,66.4,97,86,68,29.86,29.75,4,1,9,0.50
2013-9-2,87.1,77.7,70.8,76.1,72.5,69.5,97,85,66,29.84,29.76,2,1,7,0.00
2013-9-3,84.3,77.1,70.8,75.1,72.3,69.0,95,85,70,29.93,29.75,3,1,9,0.00
2013-9-4,78.7,71.4,65.1,70.1,64.6,59.8,95,80,65,30.10,29.93,3,1,7,0.00
2013-9-5,83.9,72.8,62.9,69.8,65.1,60.8,94,78,55,30.10,30.02,2,0,5,0.00
2013-9-6,76.2,68.6,60.1,64.5,60.1,55.0,89,75,62,30.21,30.10,3,0,7,0.00
2013-9-7,77.3,67.2,56.8,67.8,61.7,55.3,95,83,67,30.14,29.96,3,0,6,0.00
2013-9-8,84.6,73.2,62.7,72.0,65.8,60.8,95,79,56,30.00,29.89,2,0,6,0.00
2013-9-9,79.0,73.3,68.0,71.7,68.7,63.7,94,86,74,30.16,30.00,3,1,8,0.00
2013-9-10,87.7,77.4,68.7,75.8,71.7,67.5,96,84,64,30.21,30.11,3,1,10,0.00
2013-9-11,88.5,80.8,72.0,76.1,72.3,68.8,90,76,59,30.17,30.04,3,1,10,0.00
2013-9-12,87.9,78.0,68.6,76.1,71.3,66.2,93,81,64,30.04,29.76,3,1,10,0.00
2013-9-13,81.2,72.8,61.8,69.6,63.4,55.1,89,73,52,29.92,29.72,3,0,7,0.00
2013-9-14,69.0,62.0,54.4,55.2,51.5,48.6,84,69,53,30.10,29.92,3,1,7,0.00
2013-9-15,76.8,63.3,48.9,62.5,55.0,47.0,93,76,53,30.26,30.11,3,0,7,0.00
2013-9-16,81.0,67.3,59.3,68.6,61.9,55.4,94,83,64,30.22,30.08,3,0,7,0.00
2013-9-17,67.5,60.3,52.1,57.3,54.2,48.3,93,81,64,30.38,30.21,5,1,13,0.00
2013-9-18,69.4,58.0,45.1,53.9,48.9,43.5,95,74,41,30.34,30.19,3,0,6,0.00
2013-9-19,72.5,63.4,54.6,62.3,57.2,52.0,92,81,59,30.21,30.09,2,0,6,0.00
2013-9-20,76.3,67.8,60.7,66.9,62.9,58.4,93,85,71,30.10,29.96,3,0,9,0.00
2013-9-21,70.6,65.8,61.8,68.1,64.0,60.6,97,94,90,29.97,29.71,4,1,12,0.62
2013-9-22,72.7,65.3,58.2,64.1,59.6,55.3,97,83,61,29.93,29.72,4,1,12,0.00
2013-9-23,66.4,58.8,51.9,56.4,52.3,48.8,90,80,62,30.09,29.93,5,0,11,0.00
2013-9-24,71.0,61.3,51.5,60.3,54.5,49.6,94,80,61,30.12,29.95,2,0,5,0.00
2013-9-25,71.1,61.8,51.3,61.0,55.6,49.9,96,81,56,29.98,29.88,4,0,10,0.00
2013-9-26,73.2,64.2,56.8,61.7,57.5,53.4,93,80,55,30.06,29.90,4,1,9,0.00
2013-9-27,69.2,60.5,52.7,62.1,56.4,51.0,95,87,72,30.22,30.06,3,0,9,0.00
2013-9-28,67.5,59.8,52.4,58.9,55.4,50.7,95,86,72,30.28,30.20,4,0,11,0.00
2013-9-29,70.6,61.4,51.7,60.2,56.0,50.3,96,83,62,30.20,30.05,4,0,10,0.00
2013-9-30,72.3,61.1,51.2,61.2,56.0,49.8,96,84,62,30.11,30.00,2,0,10,0.00
2013-10-1,79.8,67.3,56.9,66.1,59.8,53.6,90,78,55,30.10,30.00,1,0,7,0.00
2013-10-2,81.4,69.5,59.2,65.7,61.4,56.9,92,77,53,30.11,30.02,2,0,7,0.00
2013-10-3,83.0,71.2,59.7,68.2,63.3,57.6,93,78,56,30.12,30.04,2,0,10,0.00
2013-10-4,84.7,73.4,63.4,70.4,65.6,61.0,92,78,53,30.10,30.02,3,0,10,0.00
2013-10-5,87.1,75.3,63.8,71.9,66.8,61.2,92,77,53,30.09,30.00,4,0,6,0.00
2013-10-6,84.0,74.3,65.2,70.5,67.0,62.2,91,79,56,30.05,29.92,5,2,13,0.00
2013-10-7,73.6,68.1,58.4,71.0,66.2,55.8,96,93,90,30.04,29.82,6,2,12,0.42
2013-10-8,61.5,56.1,50.8,55.8,50.7,47.5,92,83,69,30.25,30.04,5,1,14,0.00
2013-10-9,56.2,54.2,52.4,53.6,51.6,50.1,96,91,85,30.25,30.13,2,1,9,0.53
2013-10-10,56.9,53.6,51.8,56.0,52.6,50.7,97,97,96,30.13,29.95,2,1,9,0.60
2013-10-11,62.6,59.2,56.3,60.8,58.0,55.5,97,96,93,29.97,29.91,1,0,6,0.02
2013-10-12,63.2,60.8,59.4,62.6,60.0,58.5,98,97,97,30.11,29.94,1,0,5,0.14
2013-10-13,62.4,60.3,59.0,61.8,59.5,58.3,98,98,97,30.22,30.11,1,0,4,0.05
2013-10-15,66.9,63.7,61.9,61.9,60.7,60.1,94,90,83,30.11,30.08,2,0,3,0.00
2013-10-16,68.8,64.0,60.0,64.3,61.6,58.9,96,92,84,30.09,29.94,5,0,5,0.00
2013-10-17,70.8,65.0,60.5,65.2,62.4,59.1,95,92,81,29.95,29.78,4,1,9,0.03
2013-10-18,66.6,59.2,49.8,62.8,51.9,46.5,94,78,54,30.04,29.84,3,0,10,0.00
2013-10-19,63.0,56.5,50.3,61.8,55.1,48.5,96,95,93,30.00,29.81,4,0,10,0.01
2013-10-20,60.4,52.4,42.2,55.4,44.4,38.8,96,77,49,30.13,29.89,3,0,7,0.01
2013-10-21,64.6,52.3,41.1,50.8,44.8,39.0,94,77,52,30.18,30.00,3,0,7,0.00
2013-10-22,71.5,58.8,51.0,56.1,51.9,46.7,92,79,50,30.00,29.80,4,0,7,0.00
2013-10-23,57.5,50.1,44.2,54.6,45.1,38.1,94,83,69,29.96,29.72,2,0,7,0.01
2013-10-24,51.3,46.2,38.4,38.3,35.5,32.1,86,67,55,30.18,29.96,3,1,10,0.00
2013-10-25,53.4,42.8,32.9,35.3,32.3,29.3,90,69,41,30.36,30.17,2,0,10,0.00
2013-10-26,56.0,43.8,29.9,37.1,32.6,27.3,91,67,43,30.35,30.03,6,2,13,0.00
2013-10-27,63.1,52.5,41.2,45.3,41.0,36.3,84,66,48,30.13,30.02,3,0,13,0.00
2013-10-28,66.0,53.0,39.6,52.0,45.3,37.5,93,77,53,30.26,30.13,1,0,6,0.00
2013-10-29,66.2,57.1,50.2,54.1,50.8,47.9,92,80,62,30.37,30.25,3,0,6,0.00
2013-10-30,66.5,57.7,52.2,60.7,54.3,47.0,94,88,78,30.32,30.15,2,0,10,0.00
2013-10-31,70.5,63.3,54.7,62.6,58.2,53.3,95,84,72,30.19,29.85,4,1,13,0.00
2013-11-1,69.7,67.2,63.0,65.6,64.1,60.6,95,90,83,29.85,29.64,7,3,13,0.06
2013-11-2,68.0,59.5,51.6,60.5,50.4,40.5,96,74,43,29.92,29.65,4,1,9,0.00
2013-11-3,59.3,49.2,39.7,42.9,37.6,30.7,88,66,46,30.41,29.92,2,0,5,0.00
2013-11-4,47.9,41.2,33.5,32.3,30.5,28.9,83,66,50,30.62,30.41,4,1,9,0.00
2013-11-5,54.1,45.5,36.5,45.0,38.7,30.9,83,77,67,30.61,30.47,2,0,7,0.00
2013-11-6,67.6,55.6,45.0,56.4,50.0,42.1,93,82,67,30.48,30.11,3,0,9,0.00
2013-11-7,68.1,57.3,41.5,61.7,51.4,34.8,97,82,62,30.11,29.89,4,1,10,0.01
2013-11-8,53.6,43.4,34.3,35.0,31.3,27.9,83,64,43,30.34,30.09,4,1,11,0.00
2013-11-9,55.7,43.7,31.0,35.1,31.6,27.0,86,64,43,30.39,30.13,5,1,14,0.00
2013-11-10,67.2,53.8,43.4,42.7,34.9,29.4,66,50,30,30.26,30.01,8,2,17,0.00
2013-11-11,56.9,46.0,32.2,35.6,32.0,27.4,83,59,42,30.35,30.09,4,1,17,0.00
2013-11-12,49.1,41.9,30.0,39.4,29.3,17.4,84,61,49,30.44,30.00,5,2,13,0.00
2013-11-13,42.3,33.7,26.7,22.8,19.9,17.1,70,58,42,30.54,30.44,3,0,13,0.00
2013-11-14,58.8,47.1,29.0,27.0,23.7,18.0,64,42,25,30.44,30.30,5,2,11,0.00
2013-11-15,59.4,49.3,37.7,47.2,34.9,25.7,83,58,39,30.33,30.21,4,1,11,0.00
2013-11-16,56.4,53.0,48.9,54.6,51.3,46.8,96,94,82,30.30,30.24,1,0,7,0.16
2013-11-17,66.9,59.3,51.8,62.5,56.8,51.0,97,92,80,30.24,29.82,5,1,9,0.01
2013-11-18,67.7,64.6,60.7,65.3,61.0,54.0,95,88,72,29.84,29.75,6,3,11,0.01
2013-11-22,61.1,61.0,60.9,58.1,58.0,57.9,90,90,90,30.04,30.03,3,3,4,0.00
2013-11-23,60.8,52.6,38.4,57.8,39.8,20.6,91,64,31,30.17,30.02,5,1,9,0.00
2013-11-24,38.4,29.4,22.5,21.7,9.9,6.0,54,44,33,30.57,30.17,4,1,10,0.00
2013-11-25,36.4,28.1,18.0,18.0,12.9,7.4,74,54,39,30.61,30.39,3,0,10,0.00
2013-11-26,59.2,38.7,31.4,58.3,33.1,16.1,97,82,46,30.43,29.60,8,2,16,1.08
2013-11-27,42.8,38.3,29.9,42.0,35.6,19.1,97,91,64,30.13,29.51,3,1,8,0.85
2013-11-28,40.0,31.0,22.5,24.8,20.8,17.3,83,67,51,30.50,30.13,3,0,8,0.01
2013-11-29,32.6,32.0,31.2,23.2,23.0,22.7,71,69,68,30.70,30.69,1,0,3,0.00
2013-11-30,41.6,33.7,28.5,30.8,26.4,22.2,86,75,63,30.70,30.40,1,0,4,0.00
2013-12-1,55.1,39.0,25.0,33.6,29.1,22.5,92,70,41,30.39,30.03,3,1,6,0.00
2013-12-2,55.6,45.0,31.1,40.1,34.6,27.0,88,68,52,30.03,29.86,4,0,7,0.00
2013-12-3,59.0,47.2,35.1,46.2,40.5,32.9,93,79,58,30.02,29.88,4,0,7,0.00
2013-12-4,56.7,52.0,47.6,54.0,49.9,44.8,96,93,85,30.09,30.00,2,0,6,0.04
2013-12-5,63.7,59.7,54.5,62.1,58.5,53.1,97,96,94,30.12,29.99,4,2,9,0.28
2013-12-6,75.3,62.3,42.4,66.5,58.9,40.5,95,89,69,30.11,29.91,7,4,14,0.00
2013-12-7,43.4,39.5,34.4,40.7,36.2,29.8,95,88,78,30.53,30.06,5,2,14,0.32
2013-12-8,34.4,31.4,29.6,30.1,28.4,24.3,95,89,73,30.56,30.31,4,1,9,0.20
2013-12-9,40.2,34.7,29.9,39.4,33.7,28.6,97,96,95,30.32,30.07,3,1,4,0.01
2013-12-10,41.1,36.5,30.6,40.0,33.9,24.2,97,91,67,30.31,29.99,4,1,9,0.20
2013-12-11,44.7,36.4,28.6,28.0,25.7,22.9,81,66,49,30.44,30.28,3,1,7,0.00
2013-12-12,39.4,33.4,26.8,26.1,19.9,12.9,78,59,35,30.43,30.28,4,1,7,0.00
2013-12-13,47.2,36.2,26.1,28.2,20.7,14.0,69,54,41,30.37,30.27,6,2,10,0.00
2013-12-14,41.3,37.6,34.7,36.9,32.6,26.4,96,83,65,30.32,29.77,5,1,10,0.76
2013-12-15,50.2,40.6,34.4,41.6,34.4,27.6,97,80,55,30.04,29.68,5,2,13,0.01
2013-12-16,45.4,38.1,32.0,35.0,31.2,27.7,86,76,64,30.17,30.02,4,1,9,0.00
2013-12-17,54.7,40.4,29.7,41.8,35.0,27.9,93,82,56,30.13,29.90,6,1,11,0.30
2013-12-18,42.9,36.7,31.7,36.6,27.3,23.3,93,70,51,30.26,29.99,5,1,11,0.00
2013-12-19,62.0,46.9,32.4,34.7,28.3,23.0,69,50,34,30.26,30.18,7,3,14,0.00
2013-12-20,64.2,53.8,43.9,54.4,44.4,31.3,83,71,50,30.21,30.07,8,3,17,0.00
2013-12-21,69.7,61.3,52.5,64.3,56.2,49.5,91,84,72,30.12,29.99,9,4,17,0.00
2013-12-22,71.5,65.2,60.0,67.2,62.7,58.6,96,92,86,30.06,29.91,9,4,15,1.15
2013-12-23,64.8,56.2,42.7,63.3,54.2,37.7,96,93,82,30.18,29.98,6,2,10,0.34
2013-12-24,42.5,36.2,26.8,37.7,26.4,12.2,86,68,52,30.48,30.18,5,2,10,0.00
2013-12-25,33.2,26.2,19.3,18.4,14.6,12.2,77,62,46,30.59,30.42,4,1,10,0.00
2013-12-26,48.4,34.3,22.2,30.8,23.5,17.4,87,66,48,30.42,30.26,5,1,11,0.00
2013-12-27,50.2,39.1,27.2,27.4,23.8,19.7,78,55,40,30.48,30.37,3,0,10,0.00
2013-12-28,58.1,44.3,30.5,38.9,28.7,22.9,79,55,35,30.40,30.18,5,1,12,0.02
2013-12-29,51.9,45.7,40.7,49.5,43.1,38.6,97,91,81,30.19,29.64,5,2,11,1.27
2013-12-30,51.3,43.8,37.3,42.4,38.5,33.2,93,82,66,30.15,29.89,3,1,6,0.00
2013-12-31,48.8,39.1,30.5,35.3,28.4,21.3,93,68,42,30.35,30.14,6,2,12,0.00
2014-1-1,46.4,35.9,26.7,28.0,24.8,21.1,83,65,46,30.42,30.15,4,1,12,0.00
2014-1-2,46.7,37.5,32.9,40.0,33.0,26.9,95,84,73,30.15,29.59,2,0,6,0.33